createdAt,value
2019-04-06T00:02:27.955Z,72.38
2019-04-06T00:04:54.604Z,72.66
2019-04-06T00:07:21.338Z,72.26
2019-04-06T00:09:48.035Z,72.71
2019-04-06T00:12:14.719Z,72.65
2019-04-06T00:14:41.379Z,72.71
2019-04-06T00:17:09.034Z,72.18
2019-04-06T00:19:35.693Z,71.33
2019-04-06T00:22:02.381Z,72.41
2019-04-06T00:24:29.100Z,72.42
2019-04-06T00:26:55.914Z,72.06
2019-04-06T00:29:22.634Z,72.49
2019-04-06T00:32:08.927Z,73.20
2019-04-06T00:34:35.640Z,72.79
2019-04-06T00:37:02.241Z,72.70
2019-04-06T00:39:29.011Z,72.90
2019-04-06T00:41:55.667Z,73.32
2019-04-06T00:44:22.320Z,73.13
2019-04-06T00:46:48.969Z,73.22
2019-04-06T00:49:15.687Z,73.00
2019-04-06T00:51:42.299Z,72.84
2019-04-06T00:54:08.990Z,73.03
2019-04-06T00:56:35.701Z,73.01
2019-04-06T00:59:02.737Z,73.34
2019-04-06T01:01:29.454Z,73.54
2019-04-06T01:03:56.146Z,73.50
2019-04-06T01:06:22.747Z,73.30
2019-04-06T01:08:49.466Z,72.95
2019-04-06T01:11:16.126Z,73.38
2019-04-06T01:13:42.881Z,73.12
2019-04-06T01:16:09.572Z,73.30
2019-04-06T01:18:36.262Z,73.27
2019-04-06T01:21:02.984Z,72.81
2019-04-06T01:23:29.774Z,72.82
2019-04-06T01:26:06.572Z,72.75
2019-04-06T01:28:24.950Z,72.97
2019-04-06T01:30:51.608Z,72.42
2019-04-06T01:33:18.340Z,72.38
2019-04-06T01:35:45.068Z,72.31
2019-04-06T01:38:11.831Z,72.34
2019-04-06T01:40:38.440Z,72.98
2019-04-06T01:43:05.121Z,72.92
2019-04-06T01:45:31.794Z,72.83
2019-04-06T01:47:58.503Z,72.50
2019-04-06T01:50:25.287Z,73.12
2019-04-06T01:52:52.105Z,73.03
2019-04-06T01:55:18.814Z,72.83
2019-04-06T01:57:45.507Z,72.84
2019-04-06T02:00:14.465Z,72.73
2019-04-06T02:02:45.420Z,73.10
2019-04-06T02:05:12.146Z,73.07
2019-04-06T02:07:38.836Z,72.80
2019-04-06T02:10:05.660Z,72.52
2019-04-06T02:12:32.303Z,72.43
2019-04-06T02:14:59.017Z,71.97
2019-04-06T02:17:25.652Z,72.01
2019-04-06T02:19:52.335Z,71.77
2019-04-06T02:22:19.191Z,71.56
2019-04-06T02:24:45.857Z,71.25
2019-04-06T02:27:12.522Z,71.89
2019-04-06T02:29:39.280Z,72.11
2019-04-06T02:32:07.731Z,72.16
2019-04-06T02:34:45.463Z,71.64
2019-04-06T02:37:26.169Z,72.45
2019-04-06T02:40:00.646Z,73.43
2019-04-06T02:42:47.254Z,73.09
2019-04-06T02:45:14.014Z,73.17
2019-04-06T02:47:40.895Z,73.72
2019-04-06T02:50:07.711Z,73.68
2019-04-06T02:52:34.670Z,74.16
2019-04-06T02:55:01.433Z,74.30
2019-04-06T02:57:29.197Z,74.58
2019-04-06T02:59:55.992Z,74.70
2019-04-06T03:02:22.788Z,74.54
2019-04-06T03:04:49.482Z,74.21
2019-04-06T03:07:16.177Z,74.52
2019-04-06T03:09:42.952Z,73.77
2019-04-06T03:12:09.601Z,73.67
2019-04-06T03:14:36.338Z,73.76
2019-04-06T03:17:02.934Z,75.24
2019-04-06T03:19:29.588Z,74.95
2019-04-06T03:21:56.267Z,74.46
2019-04-06T03:24:22.893Z,75.05
2019-04-06T03:27:00.636Z,74.87
2019-04-06T03:29:18.164Z,74.78
2019-04-06T03:31:44.979Z,75.30
2019-04-06T03:34:12.310Z,76.08
2019-04-06T03:36:39.050Z,75.47
2019-04-06T03:39:07.111Z,75.15
2019-04-06T03:41:34.089Z,74.77
2019-04-06T03:44:00.992Z,75.39
2019-04-06T03:46:27.726Z,75.46
2019-04-06T03:48:54.493Z,75.36
2019-04-06T03:51:21.290Z,76.44
2019-04-06T03:53:47.932Z,75.67
2019-04-06T03:56:14.616Z,75.09
2019-04-06T03:58:41.300Z,75.30
2019-04-06T04:01:08.004Z,74.89
2019-04-06T04:03:38.638Z,74.64
2019-04-06T04:06:07.361Z,74.78
2019-04-06T04:08:33.943Z,76.81
2019-04-06T04:11:00.675Z,77.14
2019-04-06T04:13:27.468Z,78.03
2019-04-06T04:15:56.524Z,78.19
2019-04-06T04:18:22.567Z,77.96
2019-04-06T04:20:49.272Z,78.26
2019-04-06T04:23:15.903Z,78.52
2019-04-06T04:25:42.523Z,78.42
2019-04-06T04:28:09.466Z,78.55
2019-04-06T04:30:36.247Z,78.33
2019-04-06T04:33:03.102Z,78.50
2019-04-06T04:35:29.825Z,78.67
2019-04-06T04:37:56.417Z,78.76
2019-04-06T04:40:23.038Z,78.79
2019-04-06T04:42:49.699Z,78.80
2019-04-06T04:45:16.397Z,78.99
2019-04-06T04:47:43.008Z,79.28
2019-04-06T04:50:10.018Z,79.07
2019-04-06T04:52:36.620Z,78.92
2019-04-06T04:55:05.485Z,78.46
2019-04-06T04:57:39.993Z,78.60
2019-04-06T05:00:00.890Z,78.75
2019-04-06T05:02:27.562Z,78.63
2019-04-06T05:04:55.340Z,79.12
2019-04-06T05:07:22.047Z,79.27
2019-04-06T05:09:48.731Z,79.38
2019-04-06T05:12:15.425Z,79.25
2019-04-06T05:15:00.810Z,79.21
2019-04-06T05:17:27.682Z,79.11
2019-04-06T05:19:54.551Z,78.80
2019-04-06T05:22:21.460Z,79.01
2019-04-06T05:24:48.196Z,79.18
2019-04-06T05:27:14.909Z,78.81
2019-04-06T05:29:41.528Z,78.96
2019-04-06T05:32:08.293Z,79.42
2019-04-06T05:34:34.993Z,79.54
2019-04-06T05:37:01.696Z,79.63
2019-04-06T05:39:28.388Z,79.18
2019-04-06T05:41:55.199Z,80.10
2019-04-06T05:44:21.820Z,80.53
2019-04-06T05:46:48.617Z,80.81
2019-04-06T05:49:15.394Z,80.06
2019-04-06T05:51:41.997Z,79.88
2019-04-06T05:54:08.791Z,80.06
2019-04-06T05:56:35.507Z,80.19
2019-04-06T05:59:02.110Z,79.63
2019-04-06T06:01:28.713Z,79.75
2019-04-06T06:03:55.363Z,79.73
2019-04-06T06:06:22.053Z,78.50
2019-04-06T06:08:48.748Z,78.11
2019-04-06T06:11:15.525Z,79.00
2019-04-06T06:13:42.143Z,78.23
2019-04-06T06:16:08.839Z,76.46
2019-04-06T06:18:35.537Z,77.85
2019-04-06T06:21:02.333Z,77.77
2019-04-06T06:23:29.059Z,77.47
2019-04-06T06:25:55.751Z,76.78
2019-04-06T06:28:22.696Z,75.54
2019-04-06T06:30:49.428Z,76.50
2019-04-06T06:33:16.113Z,76.50
2019-04-06T06:35:42.803Z,75.26
2019-04-06T06:38:09.576Z,75.78
2019-04-06T06:40:36.303Z,75.30
2019-04-06T06:43:02.913Z,75.47
2019-04-06T06:45:29.582Z,74.67
2019-04-06T06:47:56.269Z,75.09
2019-04-06T06:50:23.223Z,75.59
2019-04-06T06:52:49.895Z,75.72
2019-04-06T06:55:16.573Z,77.21
2019-04-06T06:57:43.170Z,76.08
2019-04-06T07:00:10.538Z,75.92
2019-04-06T07:02:37.276Z,76.29
2019-04-06T07:05:05.418Z,75.86
2019-04-06T07:07:32.171Z,75.77
2019-04-06T07:10:04.987Z,76.06
2019-04-06T07:12:27.418Z,76.51
2019-04-06T07:14:54.098Z,75.47
2019-04-06T07:17:20.780Z,75.44
2019-04-06T07:19:47.490Z,74.92
2019-04-06T07:22:14.134Z,75.29
2019-04-06T07:24:40.888Z,75.69
2019-04-06T07:27:08.597Z,75.58
2019-04-06T07:29:36.138Z,74.49
2019-04-06T07:32:02.935Z,74.08
2019-04-06T07:34:29.582Z,73.74
2019-04-06T07:36:56.232Z,74.55
2019-04-06T07:39:23.975Z,75.65
2019-04-06T07:41:50.739Z,75.28
2019-04-06T07:44:17.451Z,74.66
2019-04-06T07:46:44.199Z,73.75
2019-04-06T07:49:11.133Z,73.24
2019-04-06T07:51:37.962Z,74.10
2019-04-06T07:54:04.821Z,71.87
2019-04-06T07:56:31.588Z,70.94
2019-04-06T07:58:59.292Z,70.36
2019-04-06T08:01:26.011Z,71.16
2019-04-06T08:03:52.624Z,69.13
2019-04-06T08:06:19.299Z,69.88
2019-04-06T08:08:46.791Z,69.85
2019-04-06T08:11:13.533Z,69.47
2019-04-06T08:13:40.220Z,68.54
2019-04-06T08:16:06.947Z,69.63
2019-04-06T08:18:33.561Z,69.37
2019-04-06T08:21:00.349Z,67.73
2019-04-06T08:23:27.035Z,68.33
2019-04-06T08:25:53.686Z,67.92
2019-04-06T08:28:20.379Z,66.38
2019-04-06T08:30:47.209Z,65.84
2019-04-06T08:33:14.908Z,65.59
2019-04-06T08:35:41.607Z,65.12
2019-04-06T08:38:08.473Z,66.74
2019-04-06T08:40:35.260Z,65.99
2019-04-06T08:43:01.978Z,64.35
2019-04-06T08:45:29.776Z,64.36
2019-04-06T08:47:56.463Z,65.52
2019-04-06T08:50:23.112Z,66.17
2019-04-06T08:52:49.960Z,66.02
2019-04-06T08:55:17.570Z,64.66
2019-04-06T08:57:44.199Z,64.20
2019-04-06T09:00:11.155Z,63.10
2019-04-06T09:02:37.784Z,64.17
2019-04-06T09:05:05.739Z,64.03
2019-04-06T09:07:32.413Z,63.57
2019-04-06T09:09:59.102Z,64.33
2019-04-06T09:12:25.750Z,63.31
2019-04-06T09:14:52.493Z,66.10
2019-04-06T09:17:19.112Z,64.97
2019-04-06T09:19:45.788Z,62.49
2019-04-06T09:22:12.692Z,62.94
2019-04-06T09:24:39.484Z,62.91
2019-04-06T09:27:06.193Z,63.33
2019-04-06T09:29:32.923Z,64.16
2019-04-06T09:31:59.792Z,63.70
2019-04-06T09:34:26.711Z,64.45
2019-04-06T09:36:53.445Z,63.60
2019-04-06T09:39:20.069Z,64.29
2019-04-06T09:41:46.836Z,61.63
2019-04-06T09:44:15.317Z,63.21
2019-04-06T09:46:49.597Z,63.04
2019-04-06T09:49:36.206Z,63.17
2019-04-06T09:52:07.745Z,62.45
2019-04-06T09:54:36.250Z,62.57
2019-04-06T09:57:07.586Z,61.39
2019-04-06T09:59:39.069Z,62.03
2019-04-06T10:02:24.231Z,62.16
2019-04-06T10:05:09.821Z,59.52
2019-04-06T10:07:41.351Z,60.59
2019-04-06T10:10:15.702Z,61.37
2019-04-06T10:12:46.955Z,60.44
2019-04-06T10:15:31.914Z,60.68
2019-04-06T10:18:09.288Z,59.56
2019-04-06T10:20:49.758Z,57.41
2019-04-06T10:23:27.262Z,60.17
2019-04-06T10:26:04.639Z,60.52
2019-04-06T10:28:42.452Z,57.59
2019-04-06T10:31:27.842Z,56.29
2019-04-06T10:34:02.104Z,57.30
2019-04-06T10:36:39.476Z,57.78
2019-04-06T10:39:26.111Z,57.55
2019-04-06T10:42:03.776Z,54.88
2019-04-06T10:44:38.044Z,57.09
2019-04-06T10:47:15.729Z,58.80
2019-04-06T10:49:44.354Z,54.23
2019-04-06T10:52:18.915Z,55.40
2019-04-06T10:54:53.448Z,55.74
2019-04-06T10:57:40.226Z,52.19
2019-04-06T11:00:26.336Z,53.62
2019-04-06T11:03:13.376Z,55.55
2019-04-06T11:05:44.807Z,53.55
2019-04-06T11:08:22.147Z,55.34
2019-04-06T11:10:51.100Z,54.51
2019-04-06T11:13:26.140Z,53.50
2019-04-06T11:15:54.703Z,52.45
2019-04-06T11:18:39.899Z,52.62
2019-04-06T11:21:23.549Z,52.81
2019-04-06T11:23:51.966Z,55.24
2019-04-06T11:26:23.199Z,53.80
2019-04-06T11:28:55.455Z,53.72
2019-04-06T11:31:24.007Z,54.03
2019-04-06T11:34:08.010Z,52.65
2019-04-06T11:36:53.129Z,53.54
2019-04-06T11:39:27.704Z,53.43
2019-04-06T11:41:56.215Z,52.68
2019-04-06T11:44:27.190Z,53.05
2019-04-06T11:47:12.701Z,54.77
2019-04-06T11:49:46.955Z,55.17
2019-04-06T11:52:15.425Z,54.85
2019-04-06T11:54:53.446Z,54.95
2019-04-06T11:57:24.803Z,53.55
2019-04-06T12:00:08.919Z,54.20
2019-04-06T12:02:40.185Z,52.40
2019-04-06T12:05:13.418Z,52.53
2019-04-06T12:07:42.128Z,52.61
2019-04-06T12:10:10.898Z,53.57
2019-04-06T12:12:48.342Z,55.55
2019-04-06T12:15:19.855Z,54.65
2019-04-06T12:18:00.896Z,52.63
2019-04-06T12:20:29.388Z,52.53
2019-04-06T12:23:00.958Z,52.60
2019-04-06T12:25:46.273Z,52.74
2019-04-06T12:28:14.729Z,53.21
2019-04-06T12:30:58.197Z,54.58
2019-04-06T12:33:36.142Z,54.20
2019-04-06T12:36:10.401Z,54.71
2019-04-06T12:38:55.719Z,54.44
2019-04-06T12:41:36.263Z,54.78
2019-04-06T12:44:21.951Z,55.16
2019-04-06T12:46:54.085Z,55.44
2019-04-06T12:49:28.402Z,55.80
2019-04-06T12:52:15.076Z,55.96
2019-04-06T12:54:58.345Z,56.42
2019-04-06T12:57:29.629Z,56.73
2019-04-06T13:00:13.280Z,56.46
2019-04-06T13:02:47.828Z,57.45
2019-04-06T13:05:28.751Z,57.84
2019-04-06T13:07:57.279Z,57.84
2019-04-06T13:10:28.997Z,57.25
2019-04-06T13:13:13.936Z,56.56
2019-04-06T13:15:42.368Z,58.13
2019-04-06T13:18:14.516Z,57.73
2019-04-06T13:20:46.078Z,57.56
2019-04-06T13:23:31.385Z,57.79
2019-04-06T13:26:03.003Z,57.00
2019-04-06T13:28:46.782Z,57.30
2019-04-06T13:31:18.111Z,56.68
2019-04-06T13:33:52.827Z,56.56
2019-04-06T13:36:30.126Z,56.10
2019-04-06T13:39:02.563Z,58.16
2019-04-06T13:41:38.468Z,56.73
2019-04-06T13:44:19.399Z,56.45
2019-04-06T13:46:48.095Z,56.79
2019-04-06T13:49:17.717Z,58.40
2019-04-06T13:52:01.293Z,59.00
2019-04-06T13:54:38.788Z,58.77
2019-04-06T13:57:07.322Z,59.38
2019-04-06T13:59:52.392Z,59.15
2019-04-06T14:02:23.871Z,59.79
2019-04-06T14:04:55.354Z,60.35
2019-04-06T14:07:29.632Z,60.25
2019-04-06T14:10:15.533Z,60.93
2019-04-06T14:12:50.297Z,60.94
2019-04-06T14:15:30.949Z,61.26
2019-04-06T14:18:11.523Z,61.49
2019-04-06T14:20:49.191Z,61.22
2019-04-06T14:23:23.569Z,61.32
2019-04-06T14:25:57.918Z,61.25
2019-04-06T14:28:29.712Z,61.45
2019-04-06T14:31:25.586Z,61.83
2019-04-06T14:33:54.419Z,61.35
2019-04-06T14:36:23.010Z,61.73
2019-04-06T14:39:09.760Z,61.26
2019-04-06T14:41:41.002Z,61.31
2019-04-06T14:44:26.406Z,61.45
2019-04-06T14:46:55.259Z,62.38
2019-04-06T14:49:42.056Z,62.04
2019-04-06T14:52:13.984Z,62.65
2019-04-06T14:54:49.130Z,64.19
2019-04-06T14:57:17.936Z,63.76
2019-04-06T14:59:46.765Z,64.83
2019-04-06T15:02:18.775Z,65.95
2019-04-06T15:04:53.674Z,66.31
2019-04-06T15:07:23.561Z,67.49
2019-04-06T15:09:52.165Z,66.88
2019-04-06T15:12:26.680Z,67.81
2019-04-06T15:15:07.194Z,67.81
2019-04-06T15:17:35.714Z,66.39
2019-04-06T15:20:10.490Z,66.80
2019-04-06T15:22:39.228Z,67.15
2019-04-06T15:25:10.511Z,66.45
2019-04-06T15:27:47.966Z,66.40
2019-04-06T15:34:09.823Z,67.36
2019-04-06T15:36:53.343Z,67.23
2019-04-06T15:39:24.905Z,66.91
2019-04-06T15:41:59.335Z,66.41
2019-04-06T15:44:28.786Z,66.34
2019-04-06T15:47:12.689Z,66.17
2019-04-06T15:49:46.975Z,65.86
2019-04-06T15:52:21.629Z,66.70
2019-04-06T15:55:02.419Z,66.46
2019-04-06T15:57:42.510Z,66.45
2019-04-06T16:00:13.738Z,67.08
2019-04-06T16:02:42.185Z,66.80
2019-04-06T16:05:13.447Z,67.10
2019-04-06T16:07:44.958Z,67.56
2019-04-06T16:10:13.475Z,67.82
2019-04-06T16:12:44.961Z,67.57
2019-04-06T16:15:28.576Z,67.14
2019-04-06T16:18:06.076Z,67.33
2019-04-06T16:20:44.192Z,68.18
2019-04-06T16:23:18.744Z,67.32
2019-04-06T16:25:56.316Z,66.28
2019-04-06T16:28:41.894Z,67.05
2019-04-06T16:31:26.922Z,67.38
2019-04-06T16:34:12.161Z,67.52
2019-04-06T16:36:40.604Z,68.04
2019-04-06T16:39:25.907Z,67.55
2019-04-06T16:42:11.058Z,67.69
2019-04-06T16:44:42.228Z,67.19
2019-04-06T16:47:27.866Z,67.08
2019-04-06T16:49:56.697Z,66.99
2019-04-06T16:52:34.247Z,67.00
2019-04-06T16:55:17.786Z,67.25
2019-04-06T16:57:49.053Z,67.36
2019-04-06T17:00:34.297Z,67.57
2019-04-06T17:03:19.539Z,67.83
2019-04-06T17:05:47.961Z,68.03
2019-04-06T17:08:16.539Z,68.33
2019-04-06T17:11:01.777Z,68.93
2019-04-06T17:13:42.225Z,69.06
2019-04-06T17:16:10.966Z,69.55
2019-04-06T17:18:39.950Z,69.85
2019-04-06T17:21:12.927Z,70.02
2019-04-06T17:23:41.747Z,70.20
2019-04-06T17:26:10.526Z,69.53
2019-04-06T17:28:39.058Z,69.77
2019-04-06T17:31:22.911Z,69.36
2019-04-06T17:33:54.410Z,69.35
2019-04-06T17:36:35.007Z,69.56
2019-04-06T17:39:18.686Z,69.67
2019-04-06T17:42:02.582Z,69.87
2019-04-06T17:44:32.305Z,70.06
2019-04-06T17:47:19.079Z,69.48
2019-04-06T17:49:50.691Z,69.83
2019-04-06T17:52:37.364Z,70.79
2019-04-06T17:55:15.625Z,71.04
2019-04-06T17:57:50.383Z,70.96
2019-04-06T18:00:35.882Z,70.44
2019-04-06T18:03:16.986Z,70.10
2019-04-06T18:06:02.555Z,70.32
2019-04-06T18:08:31.217Z,71.04
2019-04-06T18:10:59.730Z,72.35
2019-04-06T18:13:40.563Z,72.92
2019-04-06T18:16:07.742Z,73.64
2019-04-06T18:18:34.561Z,74.68
2019-04-06T18:21:01.641Z,73.83
2019-04-06T18:23:28.906Z,73.18
2019-04-06T18:25:55.702Z,72.83
2019-04-06T18:28:23.993Z,72.56
2019-04-06T18:30:52.655Z,72.35
2019-04-06T18:33:27.086Z,72.33
2019-04-06T18:35:54.125Z,71.90
2019-04-06T18:38:24.150Z,71.90
2019-04-06T18:40:50.847Z,71.70
2019-04-06T18:43:17.617Z,71.69
2019-04-06T18:45:44.361Z,71.89
2019-04-06T18:48:11.601Z,72.93
2019-04-06T18:50:39.140Z,72.82
2019-04-06T18:53:06.182Z,72.62
2019-04-06T18:55:32.857Z,72.58
2019-04-06T18:58:10.595Z,72.19
2019-04-06T19:00:28.750Z,72.61
2019-04-06T19:02:55.433Z,71.82
2019-04-06T19:05:22.032Z,72.29
2019-04-06T19:07:48.697Z,72.47
2019-04-06T19:10:15.395Z,71.65
2019-04-06T19:12:42.006Z,72.25
2019-04-06T19:15:09.166Z,72.71
2019-04-06T19:17:35.908Z,73.08
2019-04-06T19:20:06.724Z,74.34
2019-04-06T19:22:34.552Z,74.94
2019-04-06T19:25:01.251Z,74.10
2019-04-06T19:27:27.880Z,74.45
2019-04-06T19:29:55.332Z,73.78
2019-04-06T19:32:22.447Z,73.78
2019-04-06T19:34:49.240Z,74.03
2019-04-06T19:37:16.056Z,73.81
2019-04-06T19:39:42.646Z,74.74
2019-04-06T19:42:09.361Z,74.61
2019-04-06T19:44:36.102Z,73.86
2019-04-06T19:47:02.744Z,75.23
2019-04-06T19:49:29.644Z,74.95
2019-04-06T19:51:57.130Z,73.84
2019-04-06T19:54:24.080Z,73.67
2019-04-06T19:56:50.772Z,73.81
2019-04-06T19:59:17.439Z,73.66
2019-04-06T20:01:44.119Z,73.52
2019-04-06T20:04:11.832Z,73.05
2019-04-06T20:06:38.482Z,73.17
2019-04-06T20:09:06.417Z,73.09
2019-04-06T20:11:34.787Z,73.12
2019-04-06T20:14:01.633Z,73.01
2019-04-06T20:16:28.224Z,72.70
2019-04-06T20:18:55.434Z,73.13
2019-04-06T20:21:22.241Z,73.34
2019-04-06T20:23:49.508Z,73.26
2019-04-06T20:26:16.410Z,72.93
2019-04-06T20:28:43.186Z,75.62
2019-04-06T20:31:10.739Z,74.95
2019-04-06T20:33:46.811Z,74.32
2019-04-06T20:36:05.955Z,73.79
2019-04-06T20:38:32.644Z,73.54
2019-04-06T20:40:59.446Z,73.32
2019-04-06T20:43:26.361Z,73.32
2019-04-06T20:45:53.239Z,73.89
2019-04-06T20:48:20.430Z,74.72
2019-04-06T20:50:47.269Z,74.24
2019-04-06T20:53:14.537Z,75.47
2019-04-06T20:55:41.351Z,75.64
2019-04-06T20:58:08.335Z,75.23
2019-04-06T21:00:35.093Z,76.06
2019-04-06T21:03:04.757Z,75.36
2019-04-06T21:05:30.257Z,74.30
2019-04-06T21:07:57.671Z,74.06
2019-04-06T21:10:24.657Z,74.24
2019-04-06T21:12:51.911Z,73.57
2019-04-06T21:15:21.076Z,73.52
2019-04-06T21:17:47.296Z,73.53
2019-04-06T21:20:14.021Z,73.91
2019-04-06T21:22:40.891Z,74.00
2019-04-06T21:25:08.415Z,74.19
2019-04-06T21:27:35.224Z,73.97
2019-04-06T21:30:02.795Z,73.52
2019-04-06T21:32:30.434Z,73.69
2019-04-06T21:34:58.679Z,74.12
2019-04-06T21:37:25.567Z,74.17
2019-04-06T21:39:52.247Z,74.22
2019-04-06T21:42:18.909Z,74.44
2019-04-06T21:44:45.626Z,74.42
2019-04-06T21:47:12.229Z,74.37
2019-04-06T21:49:39.016Z,74.82
2019-04-06T21:52:05.675Z,74.67
2019-04-06T21:54:32.683Z,74.59
2019-04-06T21:56:59.570Z,75.17
2019-04-06T21:59:26.291Z,75.20
2019-04-06T22:01:53.635Z,74.96
2019-04-06T22:04:25.937Z,74.57
2019-04-06T22:06:48.927Z,74.11
2019-04-06T22:09:16.384Z,74.12
2019-04-06T22:11:43.618Z,74.27
2019-04-06T22:14:10.439Z,74.12
2019-04-06T22:16:37.154Z,74.44
2019-04-06T22:19:04.474Z,74.14
2019-04-06T22:21:31.997Z,73.85
2019-04-06T22:23:59.135Z,74.01
2019-04-06T22:26:26.042Z,74.07
2019-04-06T22:28:52.734Z,74.38
2019-04-06T22:31:20.051Z,73.95
2019-04-06T22:33:46.864Z,74.09
2019-04-06T22:36:14.148Z,73.68
2019-04-06T22:38:41.533Z,73.70
2019-04-06T22:41:08.317Z,73.85
2019-04-06T22:43:35.155Z,73.85
2019-04-06T22:46:01.870Z,74.70
2019-04-06T22:48:28.508Z,74.48
2019-04-06T22:50:55.272Z,74.69
2019-04-06T22:53:22.559Z,75.12
2019-04-06T22:55:49.403Z,75.35
2019-04-06T22:58:16.205Z,75.12
2019-04-06T23:00:48.478Z,74.90
2019-04-06T23:03:32.009Z,74.59
2019-04-06T23:06:01.239Z,74.82
2019-04-06T23:08:28.048Z,74.68
2019-04-06T23:10:54.867Z,76.23
2019-04-06T23:13:21.513Z,76.58
2019-04-06T23:15:48.830Z,75.92
2019-04-06T23:18:15.493Z,76.14
2019-04-06T23:20:42.692Z,76.18
2019-04-06T23:23:09.756Z,75.48
2019-04-06T23:25:37.150Z,75.51
2019-04-06T23:28:03.910Z,75.37
2019-04-06T23:30:30.649Z,75.75
2019-04-06T23:32:57.293Z,76.02
2019-04-06T23:35:24.229Z,75.83
2019-04-06T23:37:51.401Z,76.76
2019-04-06T23:40:18.118Z,76.40
2019-04-06T23:42:44.849Z,76.87
2019-04-06T23:45:12.009Z,76.93
2019-04-06T23:47:38.839Z,76.93
2019-04-06T23:50:05.551Z,77.26
2019-04-06T23:52:32.284Z,77.50
2019-04-06T23:54:58.923Z,78.01
2019-04-06T23:57:25.699Z,78.13
2019-04-06T23:59:52.791Z,78.30
